Time;durP1;ratioP1;P1;durP2;ratioP2;P2;SDS_P1;SDS_P2;PMS_P1;PMS_P2;Temp;Humidity;BMP_temperature;BMP_pressure;BME280_temperature;BME280_humidity;BME280_pressure;Samples;Min_cycle;Max_cycle;Signal;HPM_P1;HPM_P2
2023/08/23 00:02:22;;;;;;;16.05;11.63;;;15.70;99.90;;;;;;5132990;27;20087;-82
2023/08/23 00:04:49;;;;;;;13.07;11.77;;;15.70;99.90;;;;;;5115185;27;20035;-82
2023/08/23 00:07:15;;;;;;;12.68;11.20;;;15.70;99.90;;;;;;5133030;27;20042;-82
2023/08/23 00:09:41;;;;;;;12.38;10.88;;;15.70;99.90;;;;;;5132430;27;20083;-81
2023/08/23 00:12:07;;;;;;;13.43;11.52;;;15.70;99.90;;;;;;5132886;27;20485;-81
2023/08/23 00:14:32;;;;;;;15.55;11.35;;;15.70;99.90;;;;;;5150710;27;20468;-81
2023/08/23 00:16:58;;;;;;;13.10;10.80;;;15.70;99.90;;;;;;5115669;27;20034;-82
2023/08/23 00:19:24;;;;;;;12.65;11.45;;;15.70;99.90;;;;;;5131333;27;20033;-82
2023/08/23 00:21:49;;;;;;;14.40;11.32;;;16.00;99.90;;;;;;5115277;27;20121;-81
2023/08/23 00:24:15;;;;;;;13.43;11.13;;;15.70;99.90;;;;;;5132660;27;20411;-82
2023/08/23 00:26:41;;;;;;;12.45;11.02;;;15.60;99.90;;;;;;5131598;27;20037;-81
2023/08/23 00:29:06;;;;;;;14.70;11.73;;;15.70;99.90;;;;;;5113200;27;20060;-82
2023/08/23 00:31:32;;;;;;;13.13;11.82;;;15.50;99.90;;;;;;5151053;27;20039;-81
2023/08/23 00:33:57;;;;;;;12.68;11.40;;;15.60;99.90;;;;;;5132076;27;20038;-81
2023/08/23 00:36:23;;;;;;;12.85;11.27;;;15.50;99.90;;;;;;5132116;27;20464;-82
2023/08/23 00:38:49;;;;;;;12.23;10.98;;;15.50;99.90;;;;;;5114722;27;20095;-82
2023/08/23 00:41:15;;;;;;;13.75;12.38;;;15.40;99.90;;;;;;5109350;27;20066;-82
2023/08/23 00:43:41;;;;;;;13.40;11.98;;;15.50;99.90;;;;;;5118941;27;20035;-82
2023/08/23 00:46:07;;;;;;;14.75;12.60;;;15.50;99.90;;;;;;5102516;27;20065;-81
2023/08/23 00:48:33;;;;;;;14.10;12.57;;;15.50;99.90;;;;;;5113262;27;20030;-81
2023/08/23 00:50:59;;;;;;;14.63;12.95;;;15.80;99.90;;;;;;5132118;27;20107;-82
2023/08/23 00:53:25;;;;;;;13.15;11.75;;;15.50;99.90;;;;;;5132084;27;20091;-81
2023/08/23 00:55:51;;;;;;;14.73;12.68;;;15.40;99.90;;;;;;5114954;27;20043;-81
2023/08/23 00:58:18;;;;;;;14.68;13.25;;;15.40;99.90;;;;;;5149085;27;20257;-81
2023/08/23 01:00:45;;;;;;;16.98;12.48;;;15.40;99.90;;;;;;5131933;27;20038;-82
2023/08/23 01:03:10;;;;;;;14.50;12.98;;;15.30;99.90;;;;;;5131981;27;20035;-81
2023/08/23 01:05:39;;;;;;;15.73;13.20;;;15.40;99.90;;;;;;5114623;27;20094;-82
2023/08/23 01:08:48;;;;;;;13.32;11.93;;;15.40;99.90;;;;;;5107941;27;20091;-81
2023/08/23 01:11:33;;;;;;;13.07;11.77;;;15.30;99.90;;;;;;5129456;27;20038;-82
2023/08/23 01:13:58;;;;;;;14.70;12.07;;;15.30;99.90;;;;;;5143851;27;20031;-81
2023/08/23 01:16:25;;;;;;;15.80;14.07;;;15.30;99.90;;;;;;5150164;27;20096;-82
2023/08/23 01:18:54;;;;;;;15.48;13.98;;;15.30;99.90;;;;;;5131153;27;20551;-82
2023/08/23 01:21:27;;;;;;;15.90;13.63;;;15.20;99.90;;;;;;5114523;27;20442;-82
2023/08/23 01:23:53;;;;;;;16.02;14.35;;;15.20;99.90;;;;;;5127913;27;20055;-82
2023/08/23 01:26:19;;;;;;;18.80;13.68;;;15.20;99.90;;;;;;5110761;27;20067;-81
2023/08/23 01:28:47;;;;;;;15.65;12.43;;;15.10;99.90;;;;;;5122005;27;20078;-82
2023/08/23 01:31:15;;;;;;;13.98;12.32;;;15.30;99.90;;;;;;5110777;27;20046;-82
2023/08/23 01:33:48;;;;;;;14.63;12.82;;;15.10;99.90;;;;;;5110590;27;20031;-81
2023/08/23 01:36:25;;;;;;;14.38;12.60;;;15.20;99.90;;;;;;5128333;27;20500;-82
2023/08/23 01:38:54;;;;;;;14.77;12.88;;;15.10;99.90;;;;;;5123076;27;20469;-82
2023/08/23 01:41:20;;;;;;;15.10;12.27;;;15.10;99.90;;;;;;5103930;27;20074;-82
2023/08/23 01:43:46;;;;;;;15.10;13.48;;;15.00;99.90;;;;;;5110549;27;20088;-82
2023/08/23 01:46:12;;;;;;;15.35;12.35;;;15.00;99.90;;;;;;5127583;27;20031;-81
2023/08/23 01:48:38;;;;;;;15.65;12.95;;;15.00;99.90;;;;;;5127032;27;20043;-81
2023/08/23 01:51:03;;;;;;;15.55;13.85;;;14.90;99.90;;;;;;5127433;27;20035;-82
2023/08/23 01:53:29;;;;;;;14.45;12.68;;;14.90;99.90;;;;;;5126786;27;20027;-82
2023/08/23 01:55:55;;;;;;;15.95;13.45;;;15.00;99.90;;;;;;5127240;27;20042;-81
2023/08/23 01:58:20;;;;;;;14.68;12.60;;;15.00;99.90;;;;;;5127096;27;20114;-82
2023/08/23 02:00:47;;;;;;;17.38;14.52;;;15.10;99.90;;;;;;5110466;27;20039;-82
2023/08/23 02:03:13;;;;;;;17.35;13.77;;;15.00;99.90;;;;;;5127303;27;20035;-82
2023/08/23 02:05:39;;;;;;;16.63;14.82;;;14.90;99.90;;;;;;5110359;27;20039;-82
2023/08/23 02:08:04;;;;;;;17.27;14.38;;;14.90;99.90;;;;;;5109066;28;20040;-82
2023/08/23 02:10:30;;;;;;;14.27;12.55;;;14.80;99.90;;;;;;5126618;28;20178;-82
2023/08/23 02:12:56;;;;;;;15.60;12.52;;;14.80;99.90;;;;;;5110104;28;20031;-82
2023/08/23 02:15:22;;;;;;;16.95;13.63;;;14.80;99.90;;;;;;5110329;28;20027;-81
2023/08/23 02:17:49;;;;;;;14.30;12.80;;;14.80;99.90;;;;;;5126535;28;20047;-82
2023/08/23 02:20:15;;;;;;;13.00;11.80;;;14.70;99.90;;;;;;5128651;27;20045;-82
2023/08/23 02:22:40;;;;;;;14.35;13.05;;;14.70;99.90;;;;;;5126593;28;20035;-81
2023/08/23 02:25:06;;;;;;;12.82;11.60;;;14.70;99.90;;;;;;5119157;28;20055;-82
2023/08/23 02:27:32;;;;;;;11.50;10.35;;;14.70;99.90;;;;;;5109783;28;20066;-81
2023/08/23 02:29:57;;;;;;;12.75;11.55;;;14.70;99.90;;;;;;5128329;28;20035;-82
2023/08/23 02:32:25;;;;;;;12.80;11.60;;;14.60;99.90;;;;;;5127136;28;20369;-81
2023/08/23 02:34:50;;;;;;;12.15;11.02;;;14.60;99.90;;;;;;5109833;28;20088;-82
2023/08/23 02:37:17;;;;;;;12.18;11.10;;;14.50;99.90;;;;;;5109463;28;20039;-82
2023/08/23 02:39:42;;;;;;;13.05;11.95;;;14.50;99.90;;;;;;5127697;27;20070;-82
2023/08/23 02:42:08;;;;;;;11.95;10.75;;;14.50;99.90;;;;;;5110108;28;20074;-81
2023/08/23 02:44:34;;;;;;;12.55;11.35;;;14.40;99.90;;;;;;5126866;28;20538;-82
2023/08/23 02:46:59;;;;;;;11.65;10.45;;;14.40;99.90;;;;;;5126928;28;20038;-82
2023/08/23 02:49:25;;;;;;;12.68;10.65;;;14.40;99.90;;;;;;5109284;28;20114;-81
2023/08/23 02:51:50;;;;;;;12.38;11.15;;;14.40;99.90;;;;;;5110459;27;20050;-82
2023/08/23 02:54:16;;;;;;;14.43;13.05;;;14.60;99.90;;;;;;5124277;27;20035;-82
2023/08/23 02:56:42;;;;;;;14.95;13.23;;;14.40;99.90;;;;;;5114154;27;20504;-81
2023/08/23 02:59:07;;;;;;;11.43;10.30;;;14.40;99.90;;;;;;5113334;27;20043;-81
2023/08/23 03:01:33;;;;;;;12.90;11.70;;;14.40;99.90;;;;;;5132192;27;20061;-82
2023/08/23 03:03:59;;;;;;;11.82;10.73;;;14.40;99.90;;;;;;5130750;27;20039;-80
2023/08/23 03:06:24;;;;;;;13.95;12.75;;;14.40;99.90;;;;;;5113469;27;20038;-81
2023/08/23 03:08:50;;;;;;;14.30;12.80;;;14.40;99.90;;;;;;5129051;27;20094;-81
2023/08/23 03:11:15;;;;;;;12.70;11.50;;;14.40;99.90;;;;;;5130858;27;20039;-81
2023/08/23 03:13:41;;;;;;;12.88;11.70;;;14.40;99.90;;;;;;5113408;27;20031;-81
2023/08/23 03:16:07;;;;;;;12.43;11.32;;;14.40;99.90;;;;;;5130525;27;20095;-82
2023/08/23 03:18:32;;;;;;;12.40;11.35;;;14.40;99.90;;;;;;5131316;27;20035;-82
2023/08/23 03:20:58;;;;;;;10.52;9.63;;;14.40;99.90;;;;;;5130280;27;20031;-82
2023/08/23 03:23:23;;;;;;;12.50;11.40;;;14.50;99.90;;;;;;5112665;27;20042;-82
2023/08/23 03:25:49;;;;;;;12.95;11.75;;;14.40;99.90;;;;;;5133775;27;20078;-81
2023/08/23 03:28:15;;;;;;;11.35;10.25;;;14.50;99.90;;;;;;5133381;27;20088;-82
2023/08/23 03:30:41;;;;;;;13.10;11.93;;;14.40;99.90;;;;;;5116595;27;20114;-81
2023/08/23 03:33:07;;;;;;;12.15;11.05;;;14.50;99.90;;;;;;5133497;27;20039;-81
2023/08/23 03:35:33;;;;;;;12.75;11.40;;;14.50;99.90;;;;;;5116648;27;20050;-81
2023/08/23 03:37:59;;;;;;;12.00;10.85;;;14.40;99.90;;;;;;5131825;27;20031;-82
2023/08/23 03:40:24;;;;;;;11.98;10.77;;;14.50;99.90;;;;;;5113709;27;20404;-81
2023/08/23 03:42:50;;;;;;;13.13;11.82;;;14.50;99.90;;;;;;5105984;27;20035;-82
2023/08/23 03:45:17;;;;;;;11.75;10.60;;;14.50;99.90;;;;;;5115944;27;20514;-82
2023/08/23 03:47:44;;;;;;;12.60;10.43;;;14.50;99.90;;;;;;5115946;27;20039;-82
2023/08/23 03:50:10;;;;;;;12.23;11.13;;;14.50;99.90;;;;;;5116098;27;20512;-81
2023/08/23 03:52:36;;;;;;;13.15;11.95;;;14.40;99.90;;;;;;5131803;27;20045;-82
2023/08/23 03:55:02;;;;;;;12.73;11.45;;;14.40;99.90;;;;;;5119588;27;20125;-82
2023/08/23 03:57:27;;;;;;;13.57;12.07;;;14.40;99.90;;;;;;5118313;27;20481;-82
2023/08/23 03:59:53;;;;;;;13.40;12.13;;;14.40;99.90;;;;;;5133241;27;20034;-82
2023/08/23 04:02:19;;;;;;;12.18;10.98;;;14.40;99.90;;;;;;5133973;27;20039;-81
2023/08/23 04:04:45;;;;;;;13.90;12.40;;;14.40;99.90;;;;;;5134245;27;20040;-82
2023/08/23 04:07:14;;;;;;;14.60;13.23;;;14.40;99.90;;;;;;5133877;27;20548;-81
2023/08/23 04:09:40;;;;;;;14.85;13.32;;;14.50;99.90;;;;;;5133679;27;20042;-82
2023/08/23 04:12:06;;;;;;;15.73;14.13;;;14.50;99.90;;;;;;5133998;27;20057;-81
2023/08/23 04:14:32;;;;;;;15.80;13.70;;;14.50;99.90;;;;;;5133459;27;20035;-82
2023/08/23 04:16:59;;;;;;;17.40;14.13;;;14.50;99.90;;;;;;5133568;27;20039;-83
2023/08/23 04:19:25;;;;;;;13.68;12.35;;;14.60;99.90;;;;;;5133498;27;20039;-82
2023/08/23 04:21:51;;;;;;;18.83;14.55;;;14.60;99.90;;;;;;5132962;27;20042;-81
2023/08/23 04:24:16;;;;;;;16.30;14.60;;;14.60;99.90;;;;;;5129838;27;20049;-81
2023/08/23 04:26:42;;;;;;;14.70;13.20;;;14.70;99.90;;;;;;5130187;27;20125;-81
2023/08/23 04:29:08;;;;;;;15.40;13.68;;;14.70;99.90;;;;;;5095732;28;20134;-81
2023/08/23 04:31:33;;;;;;;14.00;12.60;;;14.80;99.90;;;;;;5109586;28;20477;-81
2023/08/23 04:34:02;;;;;;;16.77;15.07;;;14.80;99.90;;;;;;5126708;27;20040;-82
2023/08/23 04:36:27;;;;;;;14.63;13.15;;;14.90;99.90;;;;;;5109246;28;20081;-81
2023/08/23 04:38:53;;;;;;;14.77;13.30;;;14.90;99.90;;;;;;5109730;28;20040;-82
2023/08/23 04:41:18;;;;;;;17.42;15.75;;;14.90;99.90;;;;;;5109547;28;20035;-81
2023/08/23 04:43:44;;;;;;;16.92;15.23;;;15.00;99.90;;;;;;5122132;27;20039;-82
2023/08/23 04:46:09;;;;;;;15.95;14.30;;;15.00;99.90;;;;;;5143502;27;20075;-81
2023/08/23 04:48:35;;;;;;;15.02;13.63;;;15.00;99.90;;;;;;5126034;27;20039;-82
2023/08/23 04:51:03;;;;;;;15.20;13.68;;;15.00;99.90;;;;;;5125628;27;20032;-82
2023/08/23 04:53:29;;;;;;;13.38;12.02;;;15.00;99.90;;;;;;5091933;28;20039;-82
2023/08/23 04:55:58;;;;;;;14.50;13.00;;;15.10;99.90;;;;;;5109164;28;20035;-82
2023/08/23 04:58:27;;;;;;;14.30;12.90;;;15.20;99.90;;;;;;5092201;28;20109;-82
2023/08/23 05:00:54;;;;;;;17.10;11.73;;;15.20;99.90;;;;;;5132788;27;20062;-82
2023/08/23 05:03:20;;;;;;;14.48;13.07;;;15.30;99.90;;;;;;5092019;28;20040;-82
2023/08/23 05:05:46;;;;;;;14.27;12.40;;;15.30;99.90;;;;;;5108411;28;20045;-82
2023/08/23 05:08:12;;;;;;;14.63;13.05;;;15.40;99.90;;;;;;5126017;27;20034;-81
2023/08/23 05:10:38;;;;;;;14.25;12.80;;;15.40;99.90;;;;;;5125920;27;20039;-83
2023/08/23 05:13:05;;;;;;;14.75;13.32;;;15.40;99.90;;;;;;5108488;28;20032;-82
2023/08/23 05:15:30;;;;;;;14.82;13.30;;;15.30;99.90;;;;;;5123626;27;20135;-81
2023/08/23 05:17:58;;;;;;;14.52;12.85;;;15.40;99.90;;;;;;5125857;27;20127;-82
2023/08/23 05:20:23;;;;;;;15.45;13.32;;;15.40;99.90;;;;;;5142348;27;20207;-81
2023/08/23 05:22:49;;;;;;;16.60;13.65;;;15.40;99.90;;;;;;5125561;27;20039;-82
2023/08/23 05:25:15;;;;;;;13.60;11.68;;;15.40;99.90;;;;;;5125291;27;20143;-82
2023/08/23 05:27:40;;;;;;;16.45;14.18;;;15.50;99.90;;;;;;5119972;27;20065;-81
2023/08/23 05:30:08;;;;;;;15.35;13.57;;;15.60;99.90;;;;;;5090790;28;20169;-81
2023/08/23 05:32:34;;;;;;;17.90;16.02;;;15.70;99.90;;;;;;5107856;28;20485;-82
2023/08/23 05:35:00;;;;;;;17.77;14.15;;;15.90;99.90;;;;;;5090401;28;20546;-81
2023/08/23 05:37:25;;;;;;;16.23;13.30;;;16.10;99.90;;;;;;5107807;28;20031;-82
2023/08/23 05:39:51;;;;;;;16.40;13.98;;;16.30;99.90;;;;;;5108769;28;20517;-81
2023/08/23 05:42:17;;;;;;;16.38;14.65;;;16.50;99.90;;;;;;5090900;28;20481;-82
2023/08/23 05:44:42;;;;;;;19.13;13.38;;;16.60;99.90;;;;;;5107598;28;20115;-81
2023/08/23 05:47:08;;;;;;;18.67;14.07;;;16.70;99.90;;;;;;5107397;28;20047;-82
2023/08/23 05:49:34;;;;;;;16.42;14.73;;;16.80;99.90;;;;;;5106605;28;20047;-82
2023/08/23 05:51:59;;;;;;;18.13;13.32;;;16.60;99.90;;;;;;5107220;28;20031;-81
2023/08/23 05:54:25;;;;;;;19.23;13.95;;;16.40;99.90;;;;;;5107422;28;20127;-82
2023/08/23 05:56:51;;;;;;;19.80;15.95;;;16.50;99.90;;;;;;5116106;28;20140;-82
2023/08/23 05:59:16;;;;;;;14.68;12.45;;;16.50;99.90;;;;;;5110936;27;20043;-81
2023/08/23 06:01:42;;;;;;;15.98;13.38;;;16.60;99.90;;;;;;5111157;27;20041;-84
2023/08/23 06:04:08;;;;;;;16.90;13.98;;;16.70;99.90;;;;;;5110696;27;20039;-83
2023/08/23 06:06:33;;;;;;;20.55;15.20;;;16.80;99.90;;;;;;5111222;27;20039;-82
2023/08/23 06:09:02;;;;;;;16.98;13.63;;;17.20;99.90;;;;;;5127939;27;20039;-83
2023/08/23 06:11:27;;;;;;;16.65;13.43;;;18.00;99.90;;;;;;5122943;28;20028;-83
2023/08/23 06:13:55;;;;;;;18.45;14.70;;;18.30;99.90;;;;;;5124753;28;20057;-83
2023/08/23 06:16:21;;;;;;;17.10;14.93;;;18.30;99.90;;;;;;5107483;28;20122;-82
2023/08/23 06:18:46;;;;;;;18.02;14.27;;;18.30;99.90;;;;;;5124103;28;20067;-83
2023/08/23 06:21:12;;;;;;;18.90;14.93;;;18.50;99.90;;;;;;5108710;28;20039;-82
2023/08/23 06:23:43;;;;;;;21.48;15.40;;;19.00;99.90;;;;;;5127509;28;20630;-83
2023/08/23 06:26:10;;;;;;;19.67;16.13;;;19.80;99.90;;;;;;5111193;28;20042;-83
2023/08/23 06:28:35;;;;;;;18.08;14.95;;;20.10;99.90;;;;;;5097829;27;20031;-84
2023/08/23 06:31:01;;;;;;;19.17;14.63;;;20.80;99.90;;;;;;5132708;27;20035;-83
2023/08/23 06:33:27;;;;;;;20.55;15.38;;;21.60;99.90;;;;;;5115035;27;20137;-83
2023/08/23 06:35:55;;;;;;;16.33;13.85;;;22.30;99.90;;;;;;5115230;27;20541;-84
2023/08/23 06:38:21;;;;;;;16.65;14.90;;;23.10;99.90;;;;;;5115192;27;20039;-84
2023/08/23 06:40:47;;;;;;;17.88;14.25;;;24.00;99.90;;;;;;5114808;27;20054;-85
2023/08/23 06:43:19;;;;;;;17.23;14.57;;;24.60;99.90;;;;;;5115390;27;20050;-85
2023/08/23 06:45:45;;;;;;;17.55;15.73;;;25.30;99.90;;;;;;5133228;27;20050;-84
2023/08/23 06:48:12;;;;;;;18.08;16.05;;;25.70;99.90;;;;;;5097260;27;20035;-84
2023/08/23 06:50:38;;;;;;;16.17;14.45;;;26.10;99.90;;;;;;5114728;27;20070;-84
2023/08/23 06:53:04;;;;;;;15.05;13.50;;;26.50;99.90;;;;;;5133203;27;20634;-84
2023/08/23 06:55:30;;;;;;;16.27;14.60;;;26.50;99.90;;;;;;5114295;27;20041;-84
2023/08/23 06:57:56;;;;;;;28.08;25.70;;;26.00;99.90;;;;;;5133245;27;20034;-83
2023/08/23 07:00:21;;;;;;;35.67;32.28;;;25.20;99.90;;;;;;5134581;27;20118;-84
2023/08/23 07:02:48;;;;;;;25.23;22.98;;;24.50;99.90;;;;;;5135001;27;20495;-84
2023/08/23 07:05:14;;;;;;;23.73;21.42;;;24.00;99.90;;;;;;5135238;27;20560;-83
2023/08/23 07:07:39;;;;;;;29.75;27.35;;;23.30;99.90;;;;;;5153236;27;20074;-83
2023/08/23 07:10:06;;;;;;;17.50;15.80;;;23.00;99.90;;;;;;5152305;27;20087;-82
2023/08/23 07:12:31;;;;;;;16.50;14.95;;;22.70;99.90;;;;;;5152613;27;20038;-83
2023/08/23 07:14:57;;;;;;;16.90;15.18;;;22.50;99.90;;;;;;5133572;27;20042;-83
2023/08/23 07:17:23;;;;;;;16.13;14.52;;;22.30;99.90;;;;;;5116734;27;20035;-82
2023/08/23 07:19:50;;;;;;;16.05;14.35;;;22.20;99.90;;;;;;5152438;27;20045;-82
2023/08/23 07:22:16;;;;;;;16.35;14.50;;;21.90;99.90;;;;;;5152304;27;20269;-82
2023/08/23 07:24:41;;;;;;;15.43;13.35;;;21.80;99.90;;;;;;5152391;27;20603;-82
2023/08/23 07:27:07;;;;;;;16.13;14.50;;;21.80;99.90;;;;;;5116821;28;20047;-82
2023/08/23 07:29:35;;;;;;;14.95;12.20;;;21.60;99.90;;;;;;5112483;28;20088;-82
2023/08/23 07:32:01;;;;;;;16.15;14.45;;;21.70;99.90;;;;;;5112595;28;20050;-82
2023/08/23 07:34:27;;;;;;;14.50;12.98;;;21.90;99.90;;;;;;5112738;28;20043;-83
2023/08/23 07:36:52;;;;;;;12.95;11.73;;;22.20;99.90;;;;;;5129757;28;20487;-82
2023/08/23 07:39:18;;;;;;;14.40;12.90;;;22.30;99.90;;;;;;5130871;27;20397;-82
2023/08/23 07:41:43;;;;;;;15.00;13.50;;;22.70;99.90;;;;;;5112530;28;20087;-82
2023/08/23 07:44:09;;;;;;;14.73;13.32;;;22.90;99.90;;;;;;5111952;28;20458;-82
2023/08/23 07:46:35;;;;;;;16.02;14.45;;;22.90;99.90;;;;;;5130888;28;20513;-82
2023/08/23 07:49:00;;;;;;;16.42;13.43;;;22.90;99.90;;;;;;5112717;28;20043;-82
2023/08/23 07:51:26;;;;;;;16.05;14.75;;;22.90;99.90;;;;;;5130844;28;20035;-83
2023/08/23 07:53:52;;;;;;;16.85;15.32;;;22.90;99.90;;;;;;5130837;28;20169;-82
2023/08/23 07:56:18;;;;;;;11.48;9.40;;;23.00;99.90;;;;;;5144511;27;20039;-82
2023/08/23 07:58:44;;;;;;;12.00;11.00;;;23.00;99.90;;;;;;5132472;27;20037;-82
2023/08/23 08:01:09;;;;;;;11.60;10.63;;;23.00;99.90;;;;;;5133164;27;20066;-82
2023/08/23 08:03:35;;;;;;;11.75;10.75;;;23.00;99.90;;;;;;5132817;27;20038;-82
2023/08/23 08:06:01;;;;;;;13.48;12.38;;;23.00;99.90;;;;;;5115939;27;20091;-82
2023/08/23 08:08:26;;;;;;;10.00;9.10;;;23.00;99.90;;;;;;5132779;27;20046;-83
2023/08/23 08:10:52;;;;;;;9.40;8.50;;;22.90;99.90;;;;;;5120399;28;20221;-82
2023/08/23 08:13:18;;;;;;;10.10;9.27;;;23.10;99.90;;;;;;5129100;28;20035;-82
2023/08/23 08:15:44;;;;;;;18.27;16.85;;;24.00;99.90;;;;;;5112241;28;20114;-83
2023/08/23 08:18:09;;;;;;;21.33;19.73;;;25.20;99.90;;;;;;5112405;28;20039;-82
2023/08/23 08:20:35;;;;;;;22.98;21.25;;;25.80;99.90;;;;;;5112570;28;20519;-83
2023/08/23 08:23:00;;;;;;;26.90;24.80;;;26.40;99.90;;;;;;5113935;28;20039;-81
2023/08/23 10:43:19;;;;;;;1999.90;999.90;;;25.90;99.90;;;;;;6188111;22;1284853;-85
2023/08/23 10:45:51;;;;;;;1999.90;999.90;;;26.00;99.90;;;;;;6215858;23;20016;-84
2023/08/23 10:48:21;;;;;;;1999.90;999.90;;;26.20;99.90;;;;;;6240475;23;20092;-85
2023/08/23 10:50:48;;;;;;;1999.90;999.90;;;26.50;99.90;;;;;;6242161;23;20087;-85
2023/08/23 10:53:15;;;;;;;1999.90;999.90;;;26.70;99.90;;;;;;6214101;23;20019;-83
2023/08/23 10:55:41;;;;;;;1999.90;999.90;;;26.90;99.90;;;;;;6239934;23;20031;-84
2023/08/23 10:58:07;;;;;;;1999.90;888.55;;;27.00;99.90;;;;;;6214863;23;20008;-84
2023/08/23 11:00:33;;;;;;;1999.90;999.90;;;27.30;99.90;;;;;;6214962;23;20074;-84
2023/08/23 11:02:59;;;;;;;1999.90;999.90;;;27.40;99.90;;;;;;6240305;23;20576;-85
2023/08/23 11:05:24;;;;;;;1635.40;284.42;;;27.60;99.90;;;;;;6215269;23;20351;-85
2023/08/23 11:07:51;;;;;;;1999.90;999.90;;;27.70;99.90;;;;;;6213951;23;20023;-84
2023/08/23 11:10:18;;;;;;;1999.90;999.90;;;27.80;99.90;;;;;;6240322;23;20091;-83
2023/08/23 11:12:44;;;;;;;1999.90;999.90;;;28.10;99.90;;;;;;6239968;23;20008;-85
2023/08/23 11:15:10;;;;;;;1999.90;999.90;;;28.10;99.90;;;;;;6214400;23;20693;-84
2023/08/23 11:17:37;;;;;;;1999.90;999.90;;;28.00;99.90;;;;;;6215252;23;20065;-85
2023/08/23 11:20:03;;;;;;;1999.90;999.90;;;28.10;99.90;;;;;;6211824;23;20016;-85
2023/08/23 11:22:29;;;;;;;1999.90;999.90;;;28.00;99.90;;;;;;6213379;23;20312;-85
2023/08/23 11:24:57;;;;;;;1999.90;999.90;;;27.80;99.90;;;;;;6214781;23;20043;-84
2023/08/23 11:27:22;;;;;;;1999.90;999.90;;;27.60;99.90;;;;;;6241615;22;20142;-85
2023/08/23 11:29:48;;;;;;;1999.90;999.90;;;27.40;99.90;;;;;;6240148;23;20071;-84
2023/08/23 11:32:14;;;;;;;1999.90;999.90;;;27.20;99.90;;;;;;6241289;23;20004;-84
2023/08/23 11:34:39;;;;;;;1802.45;303.33;;;27.20;99.90;;;;;;6239190;23;20020;-84
2023/08/23 11:37:09;;;;;;;1999.90;735.85;;;26.60;99.90;;;;;;6239584;23;20020;-84
2023/08/23 11:39:35;;;;;;;1999.90;623.58;;;26.40;99.90;;;;;;6241739;22;20012;-84
2023/08/23 11:42:01;;;;;;;1999.90;597.70;;;26.30;99.90;;;;;;6239657;23;20008;-84
2023/08/23 11:44:30;;;;;;;1999.90;964.58;;;26.20;99.90;;;;;;6241027;22;20174;-84
2023/08/23 11:46:59;;;;;;;1999.90;943.15;;;26.00;99.90;;;;;;6214079;23;20023;-84
2023/08/23 11:49:25;;;;;;;1999.90;995.55;;;26.00;99.90;;;;;;6214310;23;20598;-84
2023/08/23 11:51:52;;;;;;;1999.90;999.90;;;25.90;99.90;;;;;;6213351;23;20043;-84
2023/08/23 11:54:18;;;;;;;1999.90;738.45;;;26.00;99.90;;;;;;6239624;23;20012;-83
2023/08/23 11:56:44;;;;;;;1999.90;768.63;;;26.00;99.90;;;;;;6240713;22;20008;-83
2023/08/23 11:59:14;;;;;;;1999.90;951.67;;;26.10;99.90;;;;;;6213502;23;20043;-82
2023/08/23 12:01:43;;;;;;;1999.90;966.72;;;26.00;99.90;;;;;;6238390;23;20019;-83
2023/08/23 12:04:10;;;;;;;1977.22;470.10;;;26.20;99.90;;;;;;6238479;23;20019;-82
2023/08/23 12:06:36;;;;;;;1637.22;766.20;;;26.40;99.90;;;;;;6237652;23;20485;-83
2023/08/23 12:09:03;;;;;;;1999.90;999.90;;;26.70;99.90;;;;;;6240069;22;20012;-82
2023/08/23 12:11:30;;;;;;;1999.90;999.90;;;26.80;99.90;;;;;;6238355;23;20012;-83
2023/08/23 12:13:55;;;;;;;1999.90;999.90;;;27.10;99.90;;;;;;6238205;23;20066;-82
2023/08/23 12:16:21;;;;;;;1999.90;999.90;;;27.20;99.90;;;;;;6240605;22;20374;-82
2023/08/23 12:18:48;;;;;;;1999.90;999.90;;;27.30;99.90;;;;;;6212816;23;20654;-82
2023/08/23 12:21:15;;;;;;;1999.90;999.90;;;27.30;99.90;;;;;;6237547;23;20054;-82
2023/08/23 12:23:41;;;;;;;1999.90;999.90;;;27.20;99.90;;;;;;6213245;23;20117;-82
2023/08/23 12:26:06;;;;;;;1999.90;999.90;;;27.30;99.90;;;;;;6240218;23;20024;-82
2023/08/23 12:28:32;;;;;;;1999.90;999.90;;;27.20;99.90;;;;;;6238432;23;20044;-82
2023/08/23 12:30:57;;;;;;;1999.90;999.90;;;27.40;99.90;;;;;;6240578;22;20030;-83
2023/08/23 12:33:23;;;;;;;1999.90;999.90;;;27.50;99.90;;;;;;6213106;23;20023;-83
2023/08/23 12:35:49;;;;;;;1999.90;999.90;;;27.60;99.90;;;;;;6213016;23;20069;-83
2023/08/23 12:38:14;;;;;;;1999.90;999.90;;;27.80;99.90;;;;;;6213396;23;20435;-83
2023/08/23 12:40:40;;;;;;;1999.90;999.90;;;27.80;99.90;;;;;;6213865;23;20012;-84
2023/08/23 12:43:06;;;;;;;1999.90;999.90;;;28.00;99.70;;;;;;6213852;23;20012;-84
2023/08/23 12:45:32;;;;;;;1999.90;999.90;;;28.10;99.90;;;;;;6238673;23;20427;-83
2023/08/23 12:47:57;;;;;;;1999.90;999.90;;;28.30;99.90;;;;;;6237825;23;20095;-83
2023/08/23 12:50:23;;;;;;;1999.90;999.90;;;28.30;99.90;;;;;;6237862;23;20012;-83
2023/08/23 12:52:49;;;;;;;1999.90;999.90;;;28.30;99.90;;;;;;6238358;23;20012;-83
2023/08/23 12:55:14;;;;;;;1999.90;999.90;;;28.40;99.20;;;;;;6239281;23;20095;-83
2023/08/23 12:57:40;;;;;;;1999.90;999.90;;;28.50;99.80;;;;;;6240678;22;20478;-84
2023/08/23 13:00:07;;;;;;;1999.90;999.90;;;28.60;99.20;;;;;;6238947;23;20047;-84
2023/08/23 13:02:33;;;;;;;1999.90;999.90;;;28.60;99.30;;;;;;6238444;23;20091;-83
2023/08/23 13:04:59;;;;;;;1999.90;999.90;;;28.80;99.50;;;;;;6238054;23;20051;-84
2023/08/23 13:07:25;;;;;;;1999.90;999.90;;;28.60;98.10;;;;;;6213882;23;20440;-83
2023/08/23 13:09:51;;;;;;;1999.90;999.90;;;28.60;98.50;;;;;;6238503;23;20012;-83
2023/08/23 13:12:16;;;;;;;1999.90;999.90;;;28.50;98.30;;;;;;6214338;23;20012;-83
2023/08/23 13:14:42;;;;;;;1999.90;999.90;;;28.50;98.80;;;;;;6215388;23;20028;-84
2023/08/23 13:17:08;;;;;;;1999.90;999.90;;;28.60;98.90;;;;;;6242915;23;20308;-83
2023/08/23 13:19:33;;;;;;;1999.90;999.90;;;28.40;98.30;;;;;;6215047;23;20012;-84
2023/08/23 13:21:59;;;;;;;1999.90;999.90;;;28.20;98.50;;;;;;6213772;23;20091;-84
2023/08/23 13:24:25;;;;;;;1999.90;999.90;;;28.10;98.40;;;;;;6211973;23;20012;-82
2023/08/23 13:26:51;;;;;;;1999.90;999.90;;;28.00;98.60;;;;;;6239708;23;20012;-80
2023/08/23 13:29:17;;;;;;;1999.90;999.90;;;27.60;98.10;;;;;;6242035;22;20012;-83
2023/08/23 13:31:46;;;;;;;1999.90;999.90;;;27.10;98.60;;;;;;6214881;23;20004;-82
2023/08/23 13:34:14;;;;;;;1999.90;999.90;;;27.00;99.70;;;;;;6240462;22;20016;-81
2023/08/23 13:36:41;;;;;;;1999.90;999.90;;;27.00;99.50;;;;;;6241822;22;20027;-84
2023/08/23 13:39:10;;;;;;;1999.90;999.90;;;27.00;99.80;;;;;;6240428;23;20012;-81
2023/08/23 13:41:37;;;;;;;1999.90;999.90;;;27.10;99.60;;;;;;6241222;22;20074;-82
2023/08/23 13:44:03;;;;;;;1999.90;999.90;;;27.20;99.30;;;;;;6215328;23;20023;-83
2023/08/23 13:46:29;;;;;;;1999.90;999.90;;;27.30;99.30;;;;;;6241005;23;20008;-81
2023/08/23 13:48:55;;;;;;;1999.90;999.90;;;27.40;99.10;;;;;;6242541;23;20136;-82
2023/08/23 13:51:21;;;;;;;1999.90;999.90;;;27.60;98.90;;;;;;6215402;23;20395;-83
2023/08/23 13:53:48;;;;;;;1999.90;999.90;;;27.70;98.80;;;;;;6214618;23;20004;-83
2023/08/23 13:56:17;;;;;;;1999.90;999.90;;;27.80;98.60;;;;;;6215733;23;20016;-82
2023/08/23 13:58:42;;;;;;;1999.90;999.90;;;27.90;98.40;;;;;;6239706;23;20123;-81
2023/08/23 14:01:09;;;;;;;1999.90;999.90;;;27.70;98.30;;;;;;6238623;23;20016;-81
2023/08/23 14:03:35;;;;;;;1999.90;999.90;;;27.50;98.00;;;;;;6238833;23;20008;-81
2023/08/23 14:06:02;;;;;;;1999.90;999.90;;;27.40;98.30;;;;;;6238881;23;20012;-80
2023/08/23 14:08:29;;;;;;;1999.90;999.90;;;27.40;98.70;;;;;;6238994;23;20205;-81
2023/08/23 14:10:55;;;;;;;1999.90;999.90;;;27.30;98.70;;;;;;6213563;23;20455;-81
2023/08/23 14:13:21;;;;;;;1999.90;999.90;;;27.30;98.50;;;;;;6239669;22;20061;-80
2023/08/23 14:15:49;;;;;;;1999.90;999.90;;;27.30;98.80;;;;;;6212658;23;20012;-80
2023/08/23 14:18:14;;;;;;;1999.90;999.90;;;27.30;98.60;;;;;;6213421;23;20451;-82
2023/08/23 14:20:40;;;;;;;1999.90;999.90;;;27.20;98.60;;;;;;6238664;23;20112;-82
2023/08/23 14:23:06;;;;;;;1999.90;999.90;;;27.10;98.30;;;;;;6212807;23;20015;-81
2023/08/23 14:25:32;;;;;;;1999.90;999.90;;;27.10;99.20;;;;;;6213019;23;20473;-81
2023/08/23 14:27:58;;;;;;;1999.90;999.90;;;26.90;99.10;;;;;;6238180;23;20087;-81
2023/08/23 14:30:24;;;;;;;1999.90;999.90;;;26.90;99.20;;;;;;6239541;22;20331;-81
2023/08/23 14:32:50;;;;;;;1999.90;999.90;;;27.00;99.30;;;;;;6212587;23;20016;-81